createdAt,value
2023-04-26T00:02:51.542Z,3.80
2023-04-26T00:07:54.361Z,3.50
2023-04-26T00:12:56.109Z,3.50
2023-04-26T00:17:57.956Z,3.40
2023-04-26T00:22:59.822Z,3.20
2023-04-26T00:28:02.046Z,2.10
2023-04-26T00:33:04.077Z,3.10
2023-04-26T00:38:06.383Z,3.40
2023-04-26T00:43:08.682Z,2.20
2023-04-26T00:48:10.832Z,3.60
2023-04-26T00:53:14.558Z,3.10
2023-04-26T00:58:16.476Z,3.60
2023-04-26T01:03:18.773Z,4.20
2023-04-26T01:08:21.829Z,4.10
2023-04-26T01:13:26.022Z,3.80
2023-04-26T01:18:27.929Z,3.70
2023-04-26T01:23:31.951Z,4.00
2023-04-26T01:33:39.882Z,3.60
2023-04-26T01:38:41.801Z,4.00
2023-04-26T01:43:43.525Z,3.80
2023-04-26T01:48:45.143Z,4.00
2023-04-26T01:53:47.122Z,4.00
2023-04-26T01:58:48.776Z,4.20
2023-04-26T02:03:51.333Z,3.00
2023-04-26T02:08:54.810Z,3.40
2023-04-26T02:13:56.827Z,3.10
2023-04-26T02:19:00.050Z,6.70
2023-04-26T02:24:01.765Z,6.30
2023-04-26T02:29:06.338Z,4.60
2023-04-26T02:34:08.585Z,3.70
2023-04-26T02:39:12.121Z,4.30
2023-04-26T02:44:14.244Z,5.40
2023-04-26T02:49:16.578Z,6.80
2023-04-26T02:54:18.631Z,6.40
2023-04-26T02:59:20.471Z,6.10
2023-04-26T03:04:22.877Z,5.30
2023-04-26T03:09:24.829Z,6.70
2023-04-26T03:14:27.174Z,6.10
2023-04-26T03:19:29.730Z,5.00
2023-04-26T03:24:31.927Z,3.70
2023-04-26T03:29:33.739Z,4.70
2023-04-26T03:34:35.563Z,6.30
2023-04-26T03:39:37.656Z,5.90
2023-04-26T03:44:39.638Z,3.10
2023-04-26T03:49:42.690Z,3.30
2023-04-26T03:59:46.975Z,8.10
2023-04-26T04:04:49.156Z,6.50
2023-04-26T04:09:51.244Z,4.40
2023-04-26T04:14:55.234Z,2.70
2023-04-26T04:19:58.515Z,4.90
2023-04-26T04:25:00.385Z,5.70
2023-04-26T04:30:04.271Z,5.90
2023-04-26T04:35:07.376Z,4.80
2023-04-26T04:40:11.651Z,4.70
2023-04-26T04:45:14.915Z,5.10
2023-04-26T04:50:17.696Z,3.80
2023-04-26T04:55:19.758Z,5.10
2023-04-26T05:00:22.019Z,5.20
2023-04-26T05:05:37.246Z,4.30
2023-04-26T05:10:39.256Z,4.80
2023-04-26T05:15:41.468Z,5.20
2023-04-26T05:20:43.305Z,2.60
2023-04-26T05:31:05.922Z,2.70
2023-04-26T05:36:23.707Z,3.90
2023-04-26T05:41:25.438Z,2.70
2023-04-26T05:46:27.296Z,3.40
2023-04-26T05:51:29.945Z,2.80
2023-04-26T05:56:32.287Z,3.50
2023-04-26T06:01:34.341Z,3.60
2023-04-26T06:06:36.992Z,1.90
2023-04-26T06:11:39.299Z,3.40
2023-04-26T06:16:43.725Z,2.90
2023-04-26T06:21:45.955Z,3.10
2023-04-26T06:26:47.685Z,2.20
2023-04-26T06:31:49.830Z,3.10
2023-04-26T06:36:54.671Z,3.20
2023-04-26T06:41:57.691Z,3.00
2023-04-26T06:47:02.748Z,3.70
2023-04-26T06:52:08.280Z,3.70
2023-04-26T06:57:11.455Z,2.40
2023-04-26T07:02:15.671Z,2.70
2023-04-26T07:07:17.884Z,2.80
2023-04-26T07:12:19.652Z,3.10
2023-04-26T07:17:22.357Z,2.70
2023-04-26T07:22:24.515Z,3.30
2023-04-26T07:27:26.395Z,3.70
2023-04-26T07:32:28.174Z,3.70
2023-04-26T07:42:31.525Z,3.70
2023-04-26T07:52:35.458Z,2.10
2023-04-26T07:57:37.781Z,2.40
2023-04-26T08:02:45.091Z,2.10
2023-04-26T08:12:50.424Z,1.80
2023-04-26T08:17:53.434Z,1.60
2023-04-26T08:22:57.137Z,1.30
2023-04-26T08:27:58.835Z,1.80
2023-04-26T08:33:01.568Z,1.80
2023-04-26T08:38:03.590Z,1.50
2023-04-26T08:43:05.684Z,1.90
2023-04-26T08:48:14.826Z,2.50
2023-04-26T08:53:21.610Z,1.90
2023-04-26T08:58:24.188Z,1.50
2023-04-26T09:03:26.619Z,1.40
2023-04-26T09:08:29.522Z,1.60
2023-04-26T09:13:31.488Z,1.50
2023-04-26T09:18:34.162Z,1.90
2023-04-26T09:23:36.177Z,1.80
2023-04-26T09:28:38.042Z,1.80
2023-04-26T09:33:58.542Z,1.60
2023-04-26T09:44:02.454Z,1.40
2023-04-26T09:49:04.247Z,1.90
2023-04-26T09:54:06.488Z,2.20
2023-04-26T09:59:11.488Z,1.50
2023-04-26T10:04:13.527Z,1.80
2023-04-26T10:14:18.427Z,1.70
2023-04-26T10:19:21.942Z,1.00
2023-04-26T10:24:24.428Z,2.30
2023-04-26T10:29:54.990Z,1.40
2023-04-26T10:35:13.518Z,1.80
2023-04-26T10:40:24.503Z,1.90
2023-04-26T10:45:28.926Z,1.50
2023-04-26T10:50:30.694Z,1.80
2023-04-26T10:55:40.594Z,1.40
2023-04-26T11:01:18.437Z,1.50
2023-04-26T11:06:23.396Z,0.80
2023-04-26T11:11:27.318Z,0.80
2023-04-26T11:16:29.383Z,0.90
2023-04-26T11:21:32.679Z,1.20
2023-04-26T11:26:35.240Z,1.20
2023-04-26T11:31:37.266Z,1.10
2023-04-26T11:36:39.079Z,1.80
2023-04-26T11:41:40.826Z,1.80
2023-04-26T11:46:45.273Z,1.00
2023-04-26T11:51:49.628Z,1.90
2023-04-26T11:56:51.319Z,1.20
2023-04-26T12:01:53.572Z,1.40
2023-04-26T12:06:56.490Z,1.30
2023-04-26T12:12:02.772Z,1.80
2023-04-26T12:17:07.471Z,1.40
2023-04-26T12:22:09.444Z,1.10
2023-04-26T12:27:20.893Z,1.30
2023-04-26T12:32:22.972Z,1.90
2023-04-26T12:37:24.772Z,1.50
2023-04-26T12:42:26.749Z,1.00
2023-04-26T12:47:28.496Z,1.50
2023-04-26T12:52:30.534Z,1.20
2023-04-26T12:57:32.353Z,1.60
2023-04-26T13:02:34.540Z,2.30
2023-04-26T13:12:39.704Z,0.90
2023-04-26T13:22:44.815Z,1.40
2023-04-26T13:27:46.961Z,1.30
2023-04-26T13:32:49.518Z,1.40
2023-04-26T13:37:52.718Z,1.00
2023-04-26T13:42:54.408Z,0.90
2023-04-26T13:47:56.168Z,1.00
2023-04-26T13:52:58.051Z,1.20
2023-04-26T13:57:59.755Z,1.30
2023-04-26T14:03:01.628Z,0.90
2023-04-26T14:08:03.633Z,1.40
2023-04-26T14:13:05.417Z,1.00
2023-04-26T14:18:08.751Z,1.40
2023-04-26T14:23:10.634Z,1.40
2023-04-26T14:28:12.726Z,1.10
2023-04-26T14:33:14.624Z,1.40
2023-04-26T14:38:16.759Z,1.30
2023-04-26T14:43:18.797Z,1.00
2023-04-26T14:48:20.756Z,1.50
2023-04-26T14:53:22.448Z,1.20
2023-04-26T14:58:25.738Z,1.00
2023-04-26T15:03:27.860Z,1.10
2023-04-26T15:08:30.058Z,2.60
2023-04-26T15:13:31.897Z,1.90
2023-04-26T15:18:33.663Z,1.90
2023-04-26T15:23:35.489Z,1.10
2023-04-26T15:28:37.216Z,1.40
2023-04-26T15:33:39.198Z,1.50
2023-04-26T15:38:44.956Z,0.80
2023-04-26T15:43:46.578Z,1.20
2023-04-26T15:48:48.873Z,1.30
2023-04-26T15:58:53.234Z,1.40
2023-04-26T16:03:55.116Z,2.10
2023-04-26T16:08:56.998Z,1.50
2023-04-26T16:13:58.777Z,1.50
2023-04-26T16:19:00.820Z,1.10
2023-04-26T16:24:02.532Z,1.20
2023-04-26T16:29:04.535Z,1.50
2023-04-26T16:34:06.907Z,1.20
2023-04-26T16:39:08.789Z,1.20
2023-04-26T16:44:11.193Z,1.50
2023-04-26T16:49:12.981Z,1.10
2023-04-26T16:54:14.686Z,1.50
2023-04-26T16:59:16.394Z,2.60
2023-04-26T17:04:18.498Z,1.60
2023-04-26T17:09:20.744Z,1.30
2023-04-26T17:14:22.416Z,1.20
2023-04-26T17:19:24.504Z,1.70
2023-04-26T17:24:26.257Z,1.80
2023-04-26T17:29:28.175Z,1.30
2023-04-26T17:34:29.981Z,1.60
2023-04-26T17:39:31.726Z,1.30
2023-04-26T17:44:33.433Z,1.50
2023-04-26T17:49:35.325Z,1.40
2023-04-26T17:54:37.082Z,1.80
2023-04-26T17:59:38.746Z,1.30
2023-04-26T18:04:41.361Z,1.60
2023-04-26T18:09:43.323Z,1.70
2023-04-26T18:14:45.293Z,1.80
2023-04-26T18:19:47.069Z,1.40
2023-04-26T18:24:48.795Z,1.40
2023-04-26T18:29:50.683Z,1.70
2023-04-26T18:34:52.523Z,2.00
2023-04-26T18:39:54.699Z,1.80
2023-04-26T18:44:56.637Z,2.30
2023-04-26T18:49:59.160Z,2.30
2023-04-26T18:55:01.112Z,2.20
2023-04-26T19:00:05.047Z,2.40
2023-04-26T19:05:08.335Z,5.10
2023-04-26T19:10:10.602Z,3.70
2023-04-26T19:15:12.393Z,4.10
2023-04-26T19:20:15.159Z,4.90
2023-04-26T19:25:20.579Z,4.90
2023-04-26T19:30:22.278Z,5.10
2023-04-26T19:35:24.249Z,8.10
2023-04-26T19:40:25.986Z,8.80
2023-04-26T19:45:29.035Z,9.60
2023-04-26T19:50:30.747Z,9.00
2023-04-26T19:55:32.873Z,7.80
2023-04-26T20:00:39.017Z,6.90
2023-04-26T20:05:41.178Z,7.50
2023-04-26T20:10:42.994Z,7.50
2023-04-26T20:15:44.661Z,9.70
2023-04-26T20:20:47.823Z,8.70
2023-04-26T20:25:51.276Z,8.70
2023-04-26T20:30:53.183Z,8.50
2023-04-26T20:35:54.942Z,5.10
2023-04-26T20:40:57.334Z,7.10
2023-04-26T20:45:59.057Z,5.70
2023-04-26T20:51:02.056Z,7.70
2023-04-26T20:56:04.127Z,6.50
2023-04-26T21:01:07.343Z,5.20
2023-04-26T21:06:09.857Z,4.50
2023-04-26T21:11:31.490Z,3.60
2023-04-26T21:16:33.171Z,5.10
2023-04-26T21:21:35.171Z,5.90
2023-04-26T21:26:36.948Z,5.40
2023-04-26T21:31:38.668Z,3.80
2023-04-26T21:36:41.021Z,5.00
2023-04-26T21:42:03.652Z,3.60
2023-04-26T21:47:25.478Z,6.30
2023-04-26T21:52:28.796Z,5.80
2023-04-26T21:57:30.515Z,5.00
2023-04-26T22:02:32.377Z,3.40
2023-04-26T22:07:34.851Z,5.40
2023-04-26T22:12:36.691Z,3.60
2023-04-26T22:17:38.430Z,4.40
2023-04-26T22:22:40.827Z,3.90
2023-04-26T22:27:42.481Z,3.30
2023-04-26T22:32:44.174Z,3.60
2023-04-26T22:37:47.150Z,2.90
2023-04-26T22:47:51.033Z,5.90
2023-04-26T22:52:53.003Z,9.90
2023-04-26T22:57:54.846Z,9.80
2023-04-26T23:02:56.760Z,8.90
2023-04-26T23:07:59.899Z,6.50
2023-04-26T23:13:09.804Z,8.60
2023-04-26T23:18:11.924Z,5.80
2023-04-26T23:23:13.653Z,5.90
2023-04-26T23:28:15.465Z,5.50
2023-04-26T23:33:19.406Z,5.20
2023-04-26T23:38:23.023Z,6.40
2023-04-26T23:43:25.398Z,7.30
2023-04-26T23:48:28.711Z,6.90
2023-04-26T23:53:30.843Z,7.30
2023-04-26T23:58:32.524Z,6.80
